sensor_id;sensor_type;location;lat;lon;timestamp;temperature;humidity
20457;DHT22;10387;51.102;6.848;2023-03-13T00:01:18;9.30;99.90
20457;DHT22;10387;51.102;6.848;2023-03-13T00:03:45;9.30;99.90
20457;DHT22;10387;51.102;6.848;2023-03-13T00:06:11;9.30;99.90
20457;DHT22;10387;51.102;6.848;2023-03-13T00:08:37;9.30;99.90
20457;DHT22;10387;51.102;6.848;2023-03-13T00:11:08;9.30;99.90
20457;DHT22;10387;51.102;6.848;2023-03-13T00:13:34;9.40;99.90
20457;DHT22;10387;51.102;6.848;2023-03-13T00:16:07;9.50;99.90
20457;DHT22;10387;51.102;6.848;2023-03-13T00:18:34;9.70;99.90
20457;DHT22;10387;51.102;6.848;2023-03-13T00:21:00;9.90;99.90
20457;DHT22;10387;51.102;6.848;2023-03-13T00:23:26;10.00;99.90
20457;DHT22;10387;51.102;6.848;2023-03-13T00:26:03;10.00;99.90
20457;DHT22;10387;51.102;6.848;2023-03-13T00:28:31;10.10;99.90
20457;DHT22;10387;51.102;6.848;2023-03-13T00:31:05;10.20;99.90
20457;DHT22;10387;51.102;6.848;2023-03-13T00:33:32;10.30;99.90
20457;DHT22;10387;51.102;6.848;2023-03-13T00:36:00;10.40;99.90
20457;DHT22;10387;51.102;6.848;2023-03-13T00:38:27;10.40;99.90
20457;DHT22;10387;51.102;6.848;2023-03-13T00:41:05;10.50;99.90
20457;DHT22;10387;51.102;6.848;2023-03-13T00:43:31;10.50;99.90
20457;DHT22;10387;51.102;6.848;2023-03-13T00:45:58;10.60;99.90
20457;DHT22;10387;51.102;6.848;2023-03-13T00:48:24;10.70;99.90
20457;DHT22;10387;51.102;6.848;2023-03-13T00:50:51;10.70;99.90
20457;DHT22;10387;51.102;6.848;2023-03-13T00:53:17;10.70;99.90
20457;DHT22;10387;51.102;6.848;2023-03-13T00:55:53;10.80;99.90
20457;DHT22;10387;51.102;6.848;2023-03-13T00:58:19;10.80;99.90
20457;DHT22;10387;51.102;6.848;2023-03-13T01:00:45;10.80;99.90
20457;DHT22;10387;51.102;6.848;2023-03-13T01:03:11;10.80;99.90
20457;DHT22;10387;51.102;6.848;2023-03-13T01:05:37;10.70;99.90
20457;DHT22;10387;51.102;6.848;2023-03-13T01:08:03;10.70;99.90
20457;DHT22;10387;51.102;6.848;2023-03-13T01:10:28;10.60;99.90
20457;DHT22;10387;51.102;6.848;2023-03-13T01:12:54;10.70;99.90
20457;DHT22;10387;51.102;6.848;2023-03-13T01:15:20;10.70;99.90
20457;DHT22;10387;51.102;6.848;2023-03-13T01:17:47;10.70;99.90
20457;DHT22;10387;51.102;6.848;2023-03-13T01:20:12;10.70;99.90
20457;DHT22;10387;51.102;6.848;2023-03-13T01:22:38;10.70;99.90
20457;DHT22;10387;51.102;6.848;2023-03-13T01:25:04;10.70;99.90
20457;DHT22;10387;51.102;6.848;2023-03-13T01:27:30;10.60;99.90
20457;DHT22;10387;51.102;6.848;2023-03-13T01:29:56;10.60;99.90
20457;DHT22;10387;51.102;6.848;2023-03-13T01:32:22;10.70;99.90
20457;DHT22;10387;51.102;6.848;2023-03-13T01:34:47;10.70;99.90
20457;DHT22;10387;51.102;6.848;2023-03-13T01:37:13;10.70;99.90
20457;DHT22;10387;51.102;6.848;2023-03-13T01:39:40;10.80;99.90
20457;DHT22;10387;51.102;6.848;2023-03-13T01:42:06;10.80;99.90
20457;DHT22;10387;51.102;6.848;2023-03-13T01:44:55;10.80;99.90
20457;DHT22;10387;51.102;6.848;2023-03-13T01:47:22;10.90;99.90
20457;DHT22;10387;51.102;6.848;2023-03-13T01:50:05;10.90;99.90
20457;DHT22;10387;51.102;6.848;2023-03-13T01:53:00;11.00;99.90
20457;DHT22;10387;51.102;6.848;2023-03-13T01:55:29;11.10;99.90
20457;DHT22;10387;51.102;6.848;2023-03-13T01:57:54;11.00;99.90
20457;DHT22;10387;51.102;6.848;2023-03-13T02:00:28;11.10;99.90
20457;DHT22;10387;51.102;6.848;2023-03-13T02:02:56;11.10;99.90
20457;DHT22;10387;51.102;6.848;2023-03-13T02:05:26;11.10;99.90
20457;DHT22;10387;51.102;6.848;2023-03-13T02:08:01;11.20;99.90
20457;DHT22;10387;51.102;6.848;2023-03-13T02:10:30;11.20;99.90
20457;DHT22;10387;51.102;6.848;2023-03-13T02:12:58;11.20;99.90
20457;DHT22;10387;51.102;6.848;2023-03-13T02:15:26;11.30;99.90
20457;DHT22;10387;51.102;6.848;2023-03-13T02:17:55;11.30;99.90
20457;DHT22;10387;51.102;6.848;2023-03-13T02:20:23;11.30;99.90
20457;DHT22;10387;51.102;6.848;2023-03-13T02:25:46;11.20;99.90
20457;DHT22;10387;51.102;6.848;2023-03-13T02:28:19;11.10;99.90
20457;DHT22;10387;51.102;6.848;2023-03-13T02:30:47;11.10;99.90
20457;DHT22;10387;51.102;6.848;2023-03-13T02:33:15;11.10;99.90
20457;DHT22;10387;51.102;6.848;2023-03-13T02:35:42;11.10;99.90
20457;DHT22;10387;51.102;6.848;2023-03-13T02:38:15;11.10;99.90
20457;DHT22;10387;51.102;6.848;2023-03-13T02:40:44;11.20;99.90
20457;DHT22;10387;51.102;6.848;2023-03-13T02:43:16;11.10;99.90
20457;DHT22;10387;51.102;6.848;2023-03-13T02:46:20;11.10;99.90
20457;DHT22;10387;51.102;6.848;2023-03-13T02:48:53;11.10;99.90
20457;DHT22;10387;51.102;6.848;2023-03-13T02:53:57;11.10;99.90
20457;DHT22;10387;51.102;6.848;2023-03-13T02:56:26;11.20;99.90
20457;DHT22;10387;51.102;6.848;2023-03-13T02:58:53;11.10;99.90
20457;DHT22;10387;51.102;6.848;2023-03-13T03:01:22;11.20;99.90
20457;DHT22;10387;51.102;6.848;2023-03-13T03:03:48;11.10;99.90
20457;DHT22;10387;51.102;6.848;2023-03-13T03:06:14;11.20;99.90
20457;DHT22;10387;51.102;6.848;2023-03-13T03:08:40;11.20;99.90
20457;DHT22;10387;51.102;6.848;2023-03-13T03:11:10;11.10;99.90
20457;DHT22;10387;51.102;6.848;2023-03-13T03:13:38;11.00;99.90
20457;DHT22;10387;51.102;6.848;2023-03-13T03:16:11;11.00;99.90
20457;DHT22;10387;51.102;6.848;2023-03-13T03:18:38;11.00;99.90
20457;DHT22;10387;51.102;6.848;2023-03-13T03:21:04;11.00;99.90
20457;DHT22;10387;51.102;6.848;2023-03-13T03:23:34;11.10;99.90
20457;DHT22;10387;51.102;6.848;2023-03-13T03:26:01;11.10;99.90
20457;DHT22;10387;51.102;6.848;2023-03-13T03:28:29;11.10;99.90
20457;DHT22;10387;51.102;6.848;2023-03-13T03:30:56;11.00;99.90
20457;DHT22;10387;51.102;6.848;2023-03-13T03:33:23;11.10;99.90
20457;DHT22;10387;51.102;6.848;2023-03-13T03:35:49;11.10;99.90
20457;DHT22;10387;51.102;6.848;2023-03-13T03:38:15;11.10;99.90
20457;DHT22;10387;51.102;6.848;2023-03-13T03:40:41;11.10;99.90
20457;DHT22;10387;51.102;6.848;2023-03-13T03:43:07;11.20;99.90
20457;DHT22;10387;51.102;6.848;2023-03-13T03:45:33;11.30;99.90
20457;DHT22;10387;51.102;6.848;2023-03-13T03:47:59;11.20;99.90
20457;DHT22;10387;51.102;6.848;2023-03-13T03:50:26;11.20;99.90
20457;DHT22;10387;51.102;6.848;2023-03-13T03:52:57;11.20;99.90
20457;DHT22;10387;51.102;6.848;2023-03-13T03:55:24;11.20;99.90
20457;DHT22;10387;51.102;6.848;2023-03-13T03:57:52;11.20;99.90
20457;DHT22;10387;51.102;6.848;2023-03-13T04:00:32;11.20;99.90
20457;DHT22;10387;51.102;6.848;2023-03-13T04:02:58;11.30;99.90
20457;DHT22;10387;51.102;6.848;2023-03-13T04:05:23;11.30;99.90
20457;DHT22;10387;51.102;6.848;2023-03-13T04:07:49;11.40;99.90
20457;DHT22;10387;51.102;6.848;2023-03-13T04:10:15;11.50;99.90
20457;DHT22;10387;51.102;6.848;2023-03-13T04:12:43;11.50;99.90
20457;DHT22;10387;51.102;6.848;2023-03-13T04:15:09;11.60;99.90
20457;DHT22;10387;51.102;6.848;2023-03-13T04:17:36;11.60;99.90
20457;DHT22;10387;51.102;6.848;2023-03-13T04:20:03;11.70;99.90
20457;DHT22;10387;51.102;6.848;2023-03-13T04:22:32;11.70;99.90
20457;DHT22;10387;51.102;6.848;2023-03-13T04:24:59;11.70;99.90
20457;DHT22;10387;51.102;6.848;2023-03-13T04:27:28;11.70;99.90
20457;DHT22;10387;51.102;6.848;2023-03-13T04:29:54;11.70;99.90
20457;DHT22;10387;51.102;6.848;2023-03-13T04:32:35;11.80;99.90
20457;DHT22;10387;51.102;6.848;2023-03-13T04:35:17;11.80;99.90
20457;DHT22;10387;51.102;6.848;2023-03-13T04:37:59;11.80;99.90
20457;DHT22;10387;51.102;6.848;2023-03-13T04:40:45;11.80;99.90
20457;DHT22;10387;51.102;6.848;2023-03-13T04:43:24;11.80;99.90
20457;DHT22;10387;51.102;6.848;2023-03-13T04:46:02;11.80;99.90
20457;DHT22;10387;51.102;6.848;2023-03-13T04:48:49;11.80;99.90
20457;DHT22;10387;51.102;6.848;2023-03-13T04:51:31;11.80;99.90
20457;DHT22;10387;51.102;6.848;2023-03-13T04:54:36;11.90;99.90
20457;DHT22;10387;51.102;6.848;2023-03-13T04:57:07;11.90;99.90
20457;DHT22;10387;51.102;6.848;2023-03-13T04:59:48;11.90;99.90
20457;DHT22;10387;51.102;6.848;2023-03-13T05:02:23;12.00;99.90
20457;DHT22;10387;51.102;6.848;2023-03-13T05:05:12;12.00;99.90
20457;DHT22;10387;51.102;6.848;2023-03-13T05:08:03;12.00;99.90
20457;DHT22;10387;51.102;6.848;2023-03-13T05:10:36;12.00;99.90
20457;DHT22;10387;51.102;6.848;2023-03-13T05:13:02;12.00;99.90
20457;DHT22;10387;51.102;6.848;2023-03-13T05:15:35;12.00;99.90
20457;DHT22;10387;51.102;6.848;2023-03-13T05:18:20;12.10;99.90
20457;DHT22;10387;51.102;6.848;2023-03-13T05:21:08;12.00;99.90
20457;DHT22;10387;51.102;6.848;2023-03-13T05:23:51;12.00;99.90
20457;DHT22;10387;51.102;6.848;2023-03-13T05:26:31;12.00;99.90
20457;DHT22;10387;51.102;6.848;2023-03-13T05:29:22;12.10;99.90
20457;DHT22;10387;51.102;6.848;2023-03-13T05:32:10;12.20;99.90
20457;DHT22;10387;51.102;6.848;2023-03-13T05:34:59;12.20;99.90
20457;DHT22;10387;51.102;6.848;2023-03-13T05:37:54;12.30;99.90
20457;DHT22;10387;51.102;6.848;2023-03-13T05:40:45;12.40;99.90
20457;DHT22;10387;51.102;6.848;2023-03-13T05:43:28;12.40;99.90
20457;DHT22;10387;51.102;6.848;2023-03-13T05:46:12;12.50;99.90
20457;DHT22;10387;51.102;6.848;2023-03-13T05:48:55;12.50;99.90
20457;DHT22;10387;51.102;6.848;2023-03-13T05:51:34;12.50;99.90
20457;DHT22;10387;51.102;6.848;2023-03-13T05:54:35;12.50;99.90
20457;DHT22;10387;51.102;6.848;2023-03-13T05:57:19;12.40;99.90
20457;DHT22;10387;51.102;6.848;2023-03-13T05:59:55;12.20;99.90
20457;DHT22;10387;51.102;6.848;2023-03-13T06:02:42;12.10;99.90
20457;DHT22;10387;51.102;6.848;2023-03-13T06:05:12;12.10;99.90
20457;DHT22;10387;51.102;6.848;2023-03-13T06:07:38;12.00;99.90
20457;DHT22;10387;51.102;6.848;2023-03-13T06:10:04;11.80;99.90
20457;DHT22;10387;51.102;6.848;2023-03-13T06:12:30;11.90;99.90
20457;DHT22;10387;51.102;6.848;2023-03-13T06:14:56;11.90;99.90
20457;DHT22;10387;51.102;6.848;2023-03-13T06:17:47;11.80;99.90
20457;DHT22;10387;51.102;6.848;2023-03-13T06:20:13;11.80;99.90
20457;DHT22;10387;51.102;6.848;2023-03-13T06:22:39;11.80;99.90
20457;DHT22;10387;51.102;6.848;2023-03-13T06:25:06;11.80;99.90
20457;DHT22;10387;51.102;6.848;2023-03-13T06:27:31;11.80;99.90
20457;DHT22;10387;51.102;6.848;2023-03-13T06:29:57;11.80;99.90
20457;DHT22;10387;51.102;6.848;2023-03-13T06:32:23;11.80;99.90
20457;DHT22;10387;51.102;6.848;2023-03-13T06:34:53;11.90;99.90
20457;DHT22;10387;51.102;6.848;2023-03-13T06:37:19;11.90;99.90
20457;DHT22;10387;51.102;6.848;2023-03-13T06:39:45;12.00;99.90
20457;DHT22;10387;51.102;6.848;2023-03-13T06:42:11;12.10;99.90
20457;DHT22;10387;51.102;6.848;2023-03-13T06:44:36;12.20;99.90
20457;DHT22;10387;51.102;6.848;2023-03-13T06:47:03;12.30;99.90
20457;DHT22;10387;51.102;6.848;2023-03-13T06:49:30;12.50;99.90
20457;DHT22;10387;51.102;6.848;2023-03-13T06:51:57;12.60;99.90
20457;DHT22;10387;51.102;6.848;2023-03-13T06:54:23;12.60;99.90
20457;DHT22;10387;51.102;6.848;2023-03-13T06:56:50;12.80;99.90
20457;DHT22;10387;51.102;6.848;2023-03-13T06:59:18;12.90;99.90
20457;DHT22;10387;51.102;6.848;2023-03-13T07:01:43;13.20;99.90
20457;DHT22;10387;51.102;6.848;2023-03-13T07:04:11;13.40;99.90
20457;DHT22;10387;51.102;6.848;2023-03-13T07:06:38;13.50;99.90
20457;DHT22;10387;51.102;6.848;2023-03-13T07:09:04;13.50;99.90
20457;DHT22;10387;51.102;6.848;2023-03-13T07:11:30;13.60;99.90
20457;DHT22;10387;51.102;6.848;2023-03-13T07:13:56;13.60;99.90
20457;DHT22;10387;51.102;6.848;2023-03-13T07:16:22;13.70;99.90
20457;DHT22;10387;51.102;6.848;2023-03-13T07:18:48;13.90;99.90
20457;DHT22;10387;51.102;6.848;2023-03-13T07:21:14;13.80;99.90
20457;DHT22;10387;51.102;6.848;2023-03-13T07:23:40;13.90;99.90
20457;DHT22;10387;51.102;6.848;2023-03-13T07:26:14;13.90;99.90
20457;DHT22;10387;51.102;6.848;2023-03-13T07:28:41;13.90;99.90
20457;DHT22;10387;51.102;6.848;2023-03-13T07:31:13;14.00;99.90
20457;DHT22;10387;51.102;6.848;2023-03-13T07:33:40;14.00;99.90
20457;DHT22;10387;51.102;6.848;2023-03-13T07:36:10;14.00;99.90
20457;DHT22;10387;51.102;6.848;2023-03-13T07:38:37;14.20;99.90
20457;DHT22;10387;51.102;6.848;2023-03-13T07:41:03;14.00;99.90
20457;DHT22;10387;51.102;6.848;2023-03-13T07:43:30;14.10;99.90
20457;DHT22;10387;51.102;6.848;2023-03-13T07:45:59;14.20;99.90
20457;DHT22;10387;51.102;6.848;2023-03-13T07:48:29;14.20;99.90
20457;DHT22;10387;51.102;6.848;2023-03-13T07:50:55;14.20;99.90
20457;DHT22;10387;51.102;6.848;2023-03-13T07:53:22;14.50;99.90
20457;DHT22;10387;51.102;6.848;2023-03-13T07:55:58;14.50;99.90
20457;DHT22;10387;51.102;6.848;2023-03-13T07:58:28;14.30;99.90
20457;DHT22;10387;51.102;6.848;2023-03-13T08:00:54;14.30;99.90
20457;DHT22;10387;51.102;6.848;2023-03-13T08:03:21;14.20;99.90
20457;DHT22;10387;51.102;6.848;2023-03-13T08:05:59;14.20;99.90
20457;DHT22;10387;51.102;6.848;2023-03-13T08:08:26;14.20;99.90
20457;DHT22;10387;51.102;6.848;2023-03-13T08:10:52;14.20;99.90
20457;DHT22;10387;51.102;6.848;2023-03-13T08:13:17;14.20;99.90
20457;DHT22;10387;51.102;6.848;2023-03-13T08:15:43;14.20;99.90
20457;DHT22;10387;51.102;6.848;2023-03-13T08:18:09;14.20;99.90
20457;DHT22;10387;51.102;6.848;2023-03-13T08:20:35;14.20;99.90
20457;DHT22;10387;51.102;6.848;2023-03-13T08:23:01;14.20;99.90
20457;DHT22;10387;51.102;6.848;2023-03-13T08:25:28;14.20;99.90
20457;DHT22;10387;51.102;6.848;2023-03-13T08:27:54;14.20;99.90
20457;DHT22;10387;51.102;6.848;2023-03-13T08:30:20;14.20;99.90
20457;DHT22;10387;51.102;6.848;2023-03-13T08:32:46;14.20;99.90
20457;DHT22;10387;51.102;6.848;2023-03-13T08:35:14;14.20;99.90
20457;DHT22;10387;51.102;6.848;2023-03-13T08:37:40;14.20;99.90
20457;DHT22;10387;51.102;6.848;2023-03-13T08:40:06;14.30;99.90
20457;DHT22;10387;51.102;6.848;2023-03-13T08:42:36;14.30;99.90
20457;DHT22;10387;51.102;6.848;2023-03-13T08:45:04;14.40;99.90
20457;DHT22;10387;51.102;6.848;2023-03-13T08:47:30;14.40;99.90
20457;DHT22;10387;51.102;6.848;2023-03-13T08:49:55;14.50;99.90
20457;DHT22;10387;51.102;6.848;2023-03-13T08:52:22;14.60;99.90
20457;DHT22;10387;51.102;6.848;2023-03-13T09:02:51;14.50;99.90
20457;DHT22;10387;51.102;6.848;2023-03-13T09:10:17;14.60;99.90
20457;DHT22;10387;51.102;6.848;2023-03-13T09:21:29;14.70;99.90
20457;DHT22;10387;51.102;6.848;2023-03-13T09:23:55;14.90;99.90
20457;DHT22;10387;51.102;6.848;2023-03-13T09:26:21;14.80;99.90
20457;DHT22;10387;51.102;6.848;2023-03-13T09:28:48;15.00;99.90
